createdAt,value
2018-01-07T00:02:16.997Z,24.70
2018-01-07T00:04:44.476Z,25.13
2018-01-07T00:07:11.951Z,24.83
2018-01-07T00:09:39.741Z,24.43
2018-01-07T00:12:07.199Z,26.30
2018-01-07T00:14:34.792Z,24.67
2018-01-07T00:17:02.256Z,26.70
2018-01-07T00:19:29.721Z,27.80
2018-01-07T00:21:57.186Z,29.07
2018-01-07T00:24:24.692Z,28.60
2018-01-07T00:26:52.262Z,27.20
2018-01-07T00:29:19.812Z,26.53
2018-01-07T00:31:48.401Z,26.73
2018-01-07T00:34:16.638Z,28.30
2018-01-07T00:36:44.269Z,27.27
2018-01-07T00:39:11.929Z,25.43
2018-01-07T00:41:39.488Z,27.10
2018-01-07T00:44:08.040Z,27.47
2018-01-07T00:46:35.521Z,27.00
2018-01-07T00:49:02.982Z,27.30
2018-01-07T00:51:30.438Z,27.53
2018-01-07T00:53:57.900Z,28.80
2018-01-07T00:56:25.447Z,25.53
2018-01-07T00:58:54.037Z,27.10
2018-01-07T01:01:21.535Z,27.67
2018-01-07T01:03:48.990Z,25.30
2018-01-07T01:06:16.468Z,26.77
2018-01-07T01:08:43.969Z,26.97
2018-01-07T01:11:11.439Z,27.57
2018-01-07T01:13:38.966Z,26.77
2018-01-07T01:16:06.426Z,26.10
2018-01-07T01:18:33.888Z,25.83
2018-01-07T01:21:01.351Z,26.40
2018-01-07T01:23:28.826Z,28.70
2018-01-07T01:25:56.300Z,25.87
2018-01-07T01:28:23.768Z,27.00
2018-01-07T01:30:51.236Z,26.07
2018-01-07T01:33:18.683Z,26.30
2018-01-07T01:35:46.159Z,27.10
2018-01-07T01:38:13.608Z,27.40
2018-01-07T01:40:41.156Z,27.87
2018-01-07T01:43:08.635Z,28.00
2018-01-07T01:45:36.095Z,27.20
2018-01-07T01:48:03.585Z,26.73
2018-01-07T01:50:31.039Z,27.40
2018-01-07T01:52:58.507Z,27.10
2018-01-07T01:55:25.983Z,28.47
2018-01-07T01:57:53.502Z,28.30
2018-01-07T02:00:20.995Z,27.30
2018-01-07T02:02:48.440Z,27.27
2018-01-07T02:05:16.767Z,25.87
2018-01-07T02:07:44.239Z,25.57
2018-01-07T02:10:11.704Z,26.50
2018-01-07T02:12:39.169Z,26.93
2018-01-07T02:15:06.641Z,27.60
2018-01-07T02:17:34.100Z,28.27
2018-01-07T02:20:01.572Z,28.60
2018-01-07T02:22:29.924Z,28.90
2018-01-07T02:24:57.389Z,28.67
2018-01-07T02:27:24.878Z,26.87
2018-01-07T02:29:53.748Z,28.40
2018-01-07T02:32:21.199Z,28.10
2018-01-07T02:34:48.697Z,29.17
2018-01-07T02:37:16.167Z,29.53
2018-01-07T02:39:43.651Z,28.40
2018-01-07T02:42:11.140Z,27.40
2018-01-07T02:44:38.601Z,29.33
2018-01-07T02:47:06.068Z,27.37
2018-01-07T02:49:33.592Z,29.63
2018-01-07T02:52:01.119Z,27.60
2018-01-07T02:54:28.573Z,27.40
2018-01-07T02:56:56.036Z,26.40
2018-01-07T02:59:23.484Z,27.77
2018-01-07T03:01:50.986Z,29.13
2018-01-07T03:04:18.479Z,25.27
2018-01-07T03:06:45.945Z,27.30
2018-01-07T03:09:13.429Z,27.90
2018-01-07T03:11:40.884Z,28.03
2018-01-07T03:14:08.331Z,27.50
2018-01-07T03:16:35.821Z,29.13
2018-01-07T03:19:03.289Z,26.87
2018-01-07T03:21:30.739Z,29.20
2018-01-07T03:23:58.254Z,28.20
2018-01-07T03:26:25.703Z,30.10
2018-01-07T03:28:53.171Z,28.70
2018-01-07T03:31:20.635Z,26.37
2018-01-07T03:33:48.099Z,27.80
2018-01-07T03:36:15.576Z,26.93
2018-01-07T03:38:43.723Z,28.27
2018-01-07T03:41:11.196Z,27.50
2018-01-07T03:43:38.672Z,25.83
2018-01-07T03:46:06.184Z,27.03
2018-01-07T03:48:33.680Z,28.10
2018-01-07T03:51:01.148Z,28.60
2018-01-07T03:53:28.621Z,27.70
2018-01-07T03:55:56.073Z,27.50
2018-01-07T03:58:24.480Z,28.90
2018-01-07T04:00:51.940Z,29.50
2018-01-07T04:03:19.398Z,27.97
2018-01-07T04:05:46.901Z,29.63
2018-01-07T04:08:14.349Z,27.27
2018-01-07T04:10:41.801Z,29.20
2018-01-07T04:13:09.259Z,27.67
2018-01-07T04:15:36.711Z,28.33
2018-01-07T04:18:04.171Z,27.57
2018-01-07T04:20:31.635Z,26.80
2018-01-07T04:22:59.100Z,26.43
2018-01-07T04:25:26.580Z,28.27
2018-01-07T04:27:54.039Z,27.00
2018-01-07T04:30:21.573Z,26.83
2018-01-07T04:32:49.057Z,27.03
2018-01-07T04:35:16.515Z,27.47
2018-01-07T04:37:44.004Z,25.60
2018-01-07T04:40:11.479Z,27.97
2018-01-07T04:42:38.928Z,26.80
2018-01-07T04:45:06.395Z,25.77
2018-01-07T04:47:33.856Z,26.63
2018-01-07T04:50:01.311Z,28.17
2018-01-07T04:52:28.806Z,27.47
2018-01-07T04:54:56.248Z,26.77
2018-01-07T04:57:23.701Z,27.10
2018-01-07T04:59:51.187Z,25.50
2018-01-07T05:02:19.260Z,25.40
2018-01-07T05:04:46.913Z,28.23
2018-01-07T05:07:14.379Z,28.47
2018-01-07T05:09:41.846Z,30.00
2018-01-07T05:12:09.340Z,30.53
2018-01-07T05:14:36.812Z,28.57
2018-01-07T05:17:04.260Z,29.40
2018-01-07T05:19:31.716Z,30.80
2018-01-07T05:21:59.202Z,32.13
2018-01-07T05:24:26.664Z,29.60
2018-01-07T05:26:54.104Z,29.30
2018-01-07T05:29:21.572Z,31.50
2018-01-07T05:31:49.023Z,31.63
2018-01-07T05:34:16.474Z,30.63
2018-01-07T05:36:43.950Z,29.93
2018-01-07T05:39:11.404Z,29.03
2018-01-07T05:41:38.868Z,30.37
2018-01-07T05:44:06.336Z,28.53
2018-01-07T05:46:33.860Z,29.50
2018-01-07T05:49:01.335Z,30.57
2018-01-07T05:51:28.837Z,30.50
2018-01-07T05:53:56.300Z,31.07
2018-01-07T05:56:23.864Z,30.73
2018-01-07T05:58:51.322Z,29.37
2018-01-07T06:01:18.808Z,28.50
2018-01-07T06:03:46.258Z,29.17
2018-01-07T06:06:13.720Z,30.03
2018-01-07T06:08:41.195Z,30.07
2018-01-07T06:11:08.670Z,31.50
2018-01-07T06:13:36.127Z,29.00
2018-01-07T06:16:03.573Z,31.20
2018-01-07T06:18:31.035Z,29.80
2018-01-07T06:20:58.492Z,31.17
2018-01-07T06:23:25.935Z,35.80
2018-01-07T06:25:53.399Z,39.97
2018-01-07T06:28:20.851Z,33.73
2018-01-07T06:30:48.327Z,31.53
2018-01-07T06:33:15.785Z,30.30
2018-01-07T06:35:43.243Z,32.43
2018-01-07T06:38:10.712Z,30.63
2018-01-07T06:40:38.157Z,32.03
2018-01-07T06:43:05.611Z,31.77
2018-01-07T06:45:33.085Z,31.10
2018-01-07T06:48:00.531Z,28.77
2018-01-07T06:50:27.983Z,30.30
2018-01-07T06:52:55.466Z,28.40
2018-01-07T06:55:22.927Z,29.40
2018-01-07T06:57:50.644Z,28.60
2018-01-07T07:00:18.113Z,29.50
2018-01-07T07:02:45.578Z,28.17
2018-01-07T07:05:13.068Z,29.83
2018-01-07T07:07:40.518Z,29.73
2018-01-07T07:10:08.000Z,26.97
2018-01-07T07:12:35.478Z,28.73
2018-01-07T07:15:02.967Z,29.80
2018-01-07T07:17:30.423Z,28.33
2018-01-07T07:19:57.879Z,26.77
2018-01-07T07:22:25.334Z,29.57
2018-01-07T07:24:52.865Z,30.67
2018-01-07T07:27:20.365Z,30.03
2018-01-07T07:29:47.819Z,31.03
2018-01-07T07:32:15.276Z,32.77
2018-01-07T07:34:42.751Z,31.60
2018-01-07T07:37:10.203Z,30.33
2018-01-07T07:39:37.655Z,33.27
2018-01-07T07:42:05.171Z,33.13
2018-01-07T07:44:32.627Z,32.87
2018-01-07T07:47:00.131Z,33.30
2018-01-07T07:49:27.600Z,30.50
2018-01-07T07:51:55.068Z,29.93
2018-01-07T07:54:22.549Z,29.63
2018-01-07T07:56:50.013Z,28.53
2018-01-07T07:59:17.491Z,30.57
2018-01-07T08:01:44.961Z,30.20
2018-01-07T08:04:12.423Z,29.90
2018-01-07T08:06:39.914Z,28.90
2018-01-07T08:09:07.375Z,32.90
2018-01-07T08:11:34.835Z,33.10
2018-01-07T08:14:02.294Z,29.50
2018-01-07T08:16:29.741Z,30.80
2018-01-07T08:34:50.587Z,28.93
2018-01-07T08:37:19.257Z,31.53
2018-01-07T08:39:46.708Z,31.03
2018-01-07T08:42:14.165Z,29.73
2018-01-07T08:44:41.630Z,29.47
2018-01-07T08:47:09.092Z,30.67
2018-01-07T08:49:36.552Z,28.03
2018-01-07T08:52:04.022Z,29.07
2018-01-07T08:54:31.470Z,31.20
2018-01-07T08:56:58.932Z,28.70
2018-01-07T08:59:26.401Z,31.73
2018-01-07T09:01:53.862Z,29.10
2018-01-07T09:04:21.332Z,32.33
2018-01-07T09:06:48.796Z,30.77
2018-01-07T09:09:16.257Z,28.20
2018-01-07T09:11:44.141Z,28.37
2018-01-07T09:14:11.595Z,28.73
2018-01-07T09:16:39.097Z,30.50
2018-01-07T09:19:06.581Z,29.73
2018-01-07T09:21:34.032Z,28.87
2018-01-07T09:24:01.700Z,28.90
2018-01-07T09:26:29.164Z,29.53
2018-01-07T09:28:56.670Z,29.27
2018-01-07T09:31:24.155Z,28.30
2018-01-07T09:33:51.731Z,28.90
2018-01-07T09:36:19.203Z,29.80
2018-01-07T09:38:46.744Z,29.80
2018-01-07T09:41:14.259Z,30.20
2018-01-07T09:43:41.745Z,32.00
2018-01-07T09:46:09.228Z,34.07
2018-01-07T09:48:36.687Z,28.43
2018-01-07T09:51:04.148Z,31.80
2018-01-07T09:53:31.610Z,28.57
2018-01-07T09:55:59.072Z,30.07
2018-01-07T09:58:26.563Z,28.70
2018-01-07T10:00:54.042Z,28.03
2018-01-07T10:03:21.505Z,29.00
2018-01-07T10:05:49.053Z,28.70
2018-01-07T10:08:16.506Z,29.30
2018-01-07T10:10:43.968Z,31.27
2018-01-07T10:13:11.419Z,33.93
2018-01-07T10:15:38.878Z,31.43
2018-01-07T10:18:06.346Z,32.57
2018-01-07T10:20:33.815Z,27.70
2018-01-07T10:23:01.276Z,28.00
2018-01-07T10:25:28.758Z,28.80
2018-01-07T10:27:56.247Z,27.90
2018-01-07T10:30:23.815Z,27.20
2018-01-07T10:32:51.264Z,27.10
2018-01-07T10:35:18.742Z,25.90
2018-01-07T10:37:46.209Z,26.80
2018-01-07T10:40:13.701Z,27.00
2018-01-07T10:42:41.176Z,27.70
2018-01-07T10:45:08.692Z,28.50
2018-01-07T10:47:36.155Z,27.70
2018-01-07T10:50:03.658Z,26.73
2018-01-07T10:52:31.176Z,28.30
2018-01-07T10:54:58.641Z,27.83
2018-01-07T10:57:26.100Z,26.20
2018-01-07T10:59:53.571Z,28.73
2018-01-07T11:02:26.471Z,24.70
2018-01-07T11:04:53.948Z,26.87
2018-01-07T11:07:21.427Z,26.67
2018-01-07T11:09:48.891Z,28.47
2018-01-07T11:12:16.352Z,28.20
2018-01-07T11:14:43.811Z,28.23
2018-01-07T11:17:11.323Z,28.60
2018-01-07T11:19:38.913Z,30.20
2018-01-07T11:22:07.881Z,30.33
2018-01-07T11:24:37.115Z,30.97
2018-01-07T11:27:04.590Z,28.50
2018-01-07T11:29:32.053Z,29.77
2018-01-07T11:31:59.547Z,28.93
2018-01-07T11:34:27.007Z,29.37
2018-01-07T11:36:54.559Z,27.50
2018-01-07T11:39:22.105Z,29.33
2018-01-07T11:41:49.540Z,29.57
2018-01-07T11:44:17.644Z,28.60
2018-01-07T11:46:45.122Z,30.80
2018-01-07T11:49:12.603Z,30.63
2018-01-07T11:51:40.061Z,30.40
2018-01-07T11:54:08.181Z,29.87
2018-01-07T11:56:35.809Z,30.70
2018-01-07T11:59:03.307Z,29.63
2018-01-07T12:01:30.792Z,27.93
2018-01-07T12:03:58.270Z,31.13
2018-01-07T12:06:25.733Z,28.57
2018-01-07T12:08:53.204Z,32.10
2018-01-07T12:11:20.760Z,27.70
2018-01-07T12:13:48.250Z,30.27
2018-01-07T12:16:16.431Z,28.60
2018-01-07T12:18:44.220Z,25.87
2018-01-07T12:21:12.068Z,30.67
2018-01-07T12:23:40.105Z,29.80
2018-01-07T12:26:07.556Z,30.20
2018-01-07T12:28:35.072Z,28.70
2018-01-07T12:31:02.564Z,28.60
2018-01-07T12:33:30.025Z,31.00
2018-01-07T12:35:57.507Z,31.13
2018-01-07T12:38:24.987Z,29.53
2018-01-07T12:40:52.487Z,31.63
2018-01-07T12:43:19.998Z,31.50
2018-01-07T12:45:47.648Z,32.00
2018-01-07T12:48:15.117Z,29.60
2018-01-07T12:50:42.611Z,32.40
2018-01-07T12:53:10.226Z,33.00
2018-01-07T12:55:37.696Z,31.40
2018-01-07T12:58:05.274Z,32.17
2018-01-07T13:00:32.763Z,32.70
2018-01-07T13:03:00.268Z,32.80
2018-01-07T13:05:27.841Z,32.27
2018-01-07T13:07:55.333Z,33.40
2018-01-07T13:10:22.851Z,32.10
2018-01-07T13:12:52.558Z,32.37
2018-01-07T13:15:21.025Z,31.33
2018-01-07T13:17:48.541Z,28.97
2018-01-07T13:20:16.035Z,30.90
2018-01-07T13:22:43.510Z,31.20
2018-01-07T13:25:10.992Z,33.63
2018-01-07T13:27:38.552Z,33.43
2018-01-07T13:30:06.085Z,33.47
2018-01-07T13:32:33.754Z,31.40
2018-01-07T13:35:01.368Z,31.97
2018-01-07T13:37:28.890Z,31.50
2018-01-07T13:39:56.438Z,32.80
2018-01-07T13:42:23.933Z,33.00
2018-01-07T13:44:51.476Z,33.10
2018-01-07T13:47:19.004Z,32.33
2018-01-07T13:49:46.522Z,33.57
2018-01-07T13:52:14.045Z,33.70
2018-01-07T13:54:41.538Z,40.13
2018-01-07T13:57:09.027Z,42.57
2018-01-07T13:59:36.505Z,38.00
2018-01-07T14:02:03.987Z,34.43
2018-01-07T14:04:31.505Z,33.60
2018-01-07T14:06:58.963Z,33.40
2018-01-07T14:09:26.492Z,40.73
2018-01-07T14:11:53.951Z,35.73
2018-01-07T14:14:21.441Z,33.70
2018-01-07T14:16:48.932Z,34.50
2018-01-07T14:19:16.388Z,36.73
2018-01-07T14:21:43.841Z,35.50
2018-01-07T14:24:11.389Z,34.00
2018-01-07T14:26:38.860Z,35.53
2018-01-07T14:29:06.340Z,49.00
2018-01-07T14:31:33.871Z,59.63
2018-01-07T14:34:01.329Z,46.03
2018-01-07T14:36:29.053Z,41.20
2018-01-07T14:38:56.516Z,41.40
2018-01-07T14:41:23.988Z,39.37
2018-01-07T14:43:51.440Z,39.83
2018-01-07T14:46:18.916Z,38.10
2018-01-07T14:48:46.499Z,37.67
2018-01-07T14:51:13.995Z,38.97
2018-01-07T14:53:41.468Z,38.43
2018-01-07T14:56:08.935Z,41.50
2018-01-07T14:58:36.418Z,37.27
2018-01-07T15:01:03.881Z,39.73
2018-01-07T15:03:31.367Z,39.97
2018-01-07T15:05:58.847Z,39.40
2018-01-07T15:08:27.391Z,39.90
2018-01-07T15:10:54.854Z,42.23
2018-01-07T15:13:22.327Z,41.87
2018-01-07T15:15:49.800Z,41.20
2018-01-07T15:18:17.276Z,40.60
2018-01-07T15:20:44.762Z,41.03
2018-01-07T15:23:12.219Z,41.13
2018-01-07T15:25:39.738Z,43.20
2018-01-07T15:28:07.245Z,40.70
2018-01-07T15:30:34.700Z,43.03
2018-01-07T15:33:02.205Z,43.10
2018-01-07T15:35:29.720Z,43.00
2018-01-07T15:37:57.182Z,41.40
2018-01-07T15:40:24.629Z,44.17
2018-01-07T15:42:52.196Z,42.97
2018-01-07T15:45:19.667Z,43.10
2018-01-07T15:47:47.249Z,42.20
2018-01-07T15:50:14.912Z,41.60
2018-01-07T15:52:42.369Z,42.50
2018-01-07T15:55:09.857Z,39.37
2018-01-07T15:57:37.348Z,38.13
2018-01-07T16:00:04.858Z,40.70
2018-01-07T16:02:32.444Z,40.67
2018-01-07T16:04:59.934Z,42.33
2018-01-07T16:07:27.408Z,39.73
2018-01-07T16:09:54.896Z,41.00
2018-01-07T16:12:22.386Z,42.57
2018-01-07T16:14:49.877Z,40.90
2018-01-07T16:17:17.340Z,43.30
2018-01-07T16:19:44.825Z,42.30
2018-01-07T16:22:12.344Z,41.27
2018-01-07T16:24:39.835Z,40.13
2018-01-07T16:29:41.038Z,39.73
2018-01-07T16:32:08.489Z,41.70
2018-01-07T16:34:35.976Z,42.53
2018-01-07T16:37:03.448Z,42.37
2018-01-07T16:52:29.348Z,46.60
2018-01-07T16:54:56.810Z,47.97
2018-01-07T16:57:24.280Z,45.33
2018-01-07T16:59:51.799Z,46.60
2018-01-07T17:02:19.266Z,45.80
2018-01-07T17:04:46.734Z,42.33
2018-01-07T17:07:14.324Z,41.70
2018-01-07T17:09:41.783Z,42.23
2018-01-07T17:12:09.232Z,41.37
2018-01-07T17:14:36.713Z,40.90
2018-01-07T17:17:04.271Z,35.63
2018-01-07T17:19:31.794Z,36.00
2018-01-07T17:21:59.290Z,35.07
2018-01-07T17:24:27.037Z,34.57
2018-01-07T17:26:54.561Z,34.50
2018-01-07T17:29:22.068Z,33.87
2018-01-07T17:31:49.597Z,38.70
2018-01-07T17:34:17.222Z,32.97
2018-01-07T17:36:44.736Z,33.80
2018-01-07T17:39:12.261Z,34.87
2018-01-07T17:41:39.720Z,33.90
2018-01-07T17:44:07.195Z,32.63
2018-01-07T17:46:34.794Z,33.20
2018-01-07T17:49:02.244Z,31.40
2018-01-07T17:51:29.744Z,31.87
2018-01-07T17:53:57.213Z,33.10
2018-01-07T17:56:24.675Z,35.10
2018-01-07T17:58:52.156Z,32.17
2018-01-07T18:01:19.632Z,34.07
2018-01-07T18:03:47.196Z,32.47
2018-01-07T18:06:14.687Z,31.80
2018-01-07T18:08:42.212Z,34.93
2018-01-07T18:11:09.714Z,32.33
2018-01-07T18:13:37.168Z,31.43
2018-01-07T18:16:04.741Z,30.10
2018-01-07T18:18:32.375Z,31.17
2018-01-07T18:20:59.846Z,31.53
2018-01-07T18:23:27.380Z,31.17
2018-01-07T18:25:54.863Z,30.60
2018-01-07T18:28:22.330Z,32.67
2018-01-07T18:30:49.812Z,33.30
2018-01-07T18:33:19.452Z,32.20
2018-01-07T18:35:47.015Z,30.87
2018-01-07T18:38:14.563Z,32.57
2018-01-07T18:40:42.624Z,29.47
2018-01-07T18:43:10.100Z,30.47
2018-01-07T18:45:37.855Z,28.97
2018-01-07T18:48:05.381Z,29.90
2018-01-07T18:50:33.093Z,30.73
2018-01-07T18:53:00.573Z,31.40
2018-01-07T18:55:28.112Z,29.50
2018-01-07T18:58:00.766Z,28.37
2018-01-07T19:00:28.912Z,26.50
2018-01-07T19:02:56.408Z,27.63
2018-01-07T19:05:23.928Z,28.40
2018-01-07T19:07:51.437Z,27.00
2018-01-07T19:10:18.916Z,29.07
2018-01-07T19:12:47.223Z,27.57
2018-01-07T19:15:14.760Z,29.13
2018-01-07T19:17:42.257Z,26.00
2018-01-07T19:20:09.830Z,28.63
2018-01-07T19:22:37.339Z,29.27
2018-01-07T19:25:04.832Z,28.03
2018-01-07T19:27:32.381Z,31.53
2018-01-07T19:29:59.851Z,28.57
2018-01-07T19:32:27.471Z,27.57
2018-01-07T19:34:55.043Z,34.07
2018-01-07T19:37:22.684Z,35.20
2018-01-07T19:39:50.422Z,31.33
2018-01-07T19:42:18.242Z,31.63
2018-01-07T19:44:46.031Z,29.53
2018-01-07T19:47:13.884Z,31.00
2018-01-07T19:49:41.684Z,29.97
2018-01-07T19:52:09.608Z,30.53
2018-01-07T19:54:38.378Z,30.07
2018-01-07T19:57:06.207Z,29.77
2018-01-07T19:59:34.003Z,29.53
2018-01-07T20:02:01.823Z,29.83
2018-01-07T20:04:29.718Z,30.13
2018-01-07T20:06:57.685Z,29.30
2018-01-07T20:09:25.470Z,27.67
2018-01-07T20:11:53.436Z,32.20
2018-01-07T20:14:21.198Z,29.97
2018-01-07T20:16:48.997Z,33.03
2018-01-07T20:19:16.863Z,35.00
2018-01-07T20:21:44.630Z,32.90
2018-01-07T20:24:12.739Z,32.83
2018-01-07T20:26:40.672Z,33.20
2018-01-07T20:29:08.549Z,32.27
2018-01-07T20:31:36.395Z,32.30
2018-01-07T20:34:04.436Z,30.70
2018-01-07T20:36:32.494Z,32.10
2018-01-07T20:39:00.368Z,33.00
2018-01-07T20:41:27.993Z,32.80
2018-01-07T20:43:55.481Z,32.30
2018-01-07T20:46:23.014Z,33.20
2018-01-07T20:48:50.560Z,33.00
2018-01-07T20:51:18.091Z,33.30
2018-01-07T20:53:45.711Z,31.50
2018-01-07T20:56:13.278Z,32.17
2018-01-07T20:58:41.060Z,32.17
2018-01-07T21:01:08.735Z,32.80
2018-01-07T21:03:36.447Z,30.60
2018-01-07T21:06:04.011Z,31.83
2018-01-07T21:08:32.584Z,31.27
2018-01-07T21:11:00.122Z,31.07
2018-01-07T21:13:27.633Z,33.27
2018-01-07T21:15:55.137Z,33.40
2018-01-07T21:18:22.697Z,33.20
2018-01-07T21:20:50.212Z,33.23
2018-01-07T21:23:17.696Z,35.53
2018-01-07T21:25:45.408Z,32.47
2018-01-07T21:28:12.879Z,33.70
2018-01-07T21:30:40.401Z,34.80
2018-01-07T21:33:07.889Z,34.13
2018-01-07T21:35:35.355Z,33.33
2018-01-07T21:38:02.825Z,32.47
2018-01-07T21:40:36.984Z,35.00
2018-01-07T21:43:04.496Z,36.50
2018-01-07T21:45:31.953Z,38.50
2018-01-07T21:47:59.533Z,36.43
2018-01-07T21:50:27.098Z,35.47
2018-01-07T21:52:54.542Z,35.37
2018-01-07T21:55:22.012Z,38.23
2018-01-07T21:57:49.700Z,36.70
2018-01-07T22:00:39.739Z,38.47
2018-01-07T22:03:19.249Z,34.87
2018-01-07T22:05:54.622Z,36.50
2018-01-07T22:08:22.161Z,36.70
2018-01-07T22:10:49.620Z,37.87
2018-01-07T22:13:17.100Z,39.00
2018-01-07T22:15:44.700Z,37.33
2018-01-07T22:18:12.153Z,39.50
2018-01-07T22:20:39.634Z,39.50
2018-01-07T22:23:07.450Z,37.37
2018-01-07T22:25:34.969Z,39.70
2018-01-07T22:28:02.445Z,40.47
2018-01-07T22:30:29.978Z,41.50
2018-01-07T22:32:58.488Z,40.87
2018-01-07T22:35:26.590Z,40.77
2018-01-07T22:37:54.127Z,41.13
2018-01-07T22:40:22.770Z,41.10
2018-01-07T22:42:50.398Z,41.83
2018-01-07T22:45:18.370Z,43.67
2018-01-07T22:47:51.365Z,41.67
2018-01-07T22:50:19.104Z,41.20
2018-01-07T22:52:46.605Z,43.03
2018-01-07T22:55:14.084Z,43.27
2018-01-07T22:57:41.559Z,43.27
2018-01-07T23:00:10.218Z,42.10
2018-01-07T23:02:41.223Z,43.40
2018-01-07T23:05:09.466Z,46.13
2018-01-07T23:07:37.028Z,46.70
2018-01-07T23:10:06.246Z,48.10
2018-01-07T23:12:33.930Z,44.80
2018-01-07T23:15:04.849Z,43.70
2018-01-07T23:17:32.864Z,43.63
2018-01-07T23:20:01.333Z,45.90
2018-01-07T23:22:31.189Z,46.17
2018-01-07T23:24:58.676Z,46.40
2018-01-07T23:27:26.177Z,45.70
2018-01-07T23:29:53.675Z,48.40
2018-01-07T23:32:21.134Z,48.33
2018-01-07T23:34:48.592Z,47.77
2018-01-07T23:37:16.095Z,49.27
2018-01-07T23:39:43.575Z,46.00
2018-01-07T23:42:11.031Z,45.73
2018-01-07T23:44:38.519Z,47.60
2018-01-07T23:47:06.073Z,47.27
2018-01-07T23:49:33.572Z,48.27
2018-01-07T23:52:01.043Z,48.53
2018-01-07T23:54:28.782Z,46.13
2018-01-07T23:56:56.370Z,46.97
2018-01-07T23:59:23.851Z,49.30
